Time;durP1;ratioP1;P1;durP2;ratioP2;P2;SDS_P1;SDS_P2;PMS_P1;PMS_P2;Temp;Humidity;BMP_temperature;BMP_pressure;BME280_temperature;BME280_humidity;BME280_pressure;Samples;Min_cycle;Max_cycle;Signal;HPM_P1;HPM_P2
2022/09/25 00:02:00;;;;;;;12.50;8.60;;;;;;;6.18;80.35;100399.52;85831;1293;88059;-60
2022/09/25 00:04:11;;;;;;;13.10;8.80;;;;;;;6.14;80.36;100398.92;85818;1285;96498;-60
2022/09/25 00:06:24;;;;;;;11.60;8.70;;;;;;;6.12;80.44;100397.91;85843;1301;81190;-58
2022/09/25 00:08:34;;;;;;;11.80;8.50;;;;;;;6.07;80.60;100391.90;85849;1294;81850;-62
2022/09/25 00:10:51;;;;;;;11.00;7.80;;;;;;;6.04;80.58;100395.84;85800;1296;99261;-60
2022/09/25 00:13:03;;;;;;;11.50;8.40;;;;;;;6.01;80.60;100393.98;85787;1302;87199;-55
2022/09/25 00:15:17;;;;;;;10.90;7.90;;;;;;;5.99;80.61;100392.62;85855;1294;94865;-62
2022/09/25 00:17:27;;;;;;;11.40;8.30;;;;;;;5.96;80.60;100389.16;85851;1285;80205;-62
2022/09/25 00:19:52;;;;;;;10.70;7.80;;;;;;;5.94;80.47;100390.41;85833;1285;82260;-62
2022/09/25 00:22:05;;;;;;;12.70;8.20;;;;;;;5.89;80.50;100389.35;85857;1300;96906;-62
2022/09/25 00:24:16;;;;;;;10.80;8.10;;;;;;;5.86;80.31;100385.41;85856;1285;88762;-61
2022/09/25 00:26:35;;;;;;;10.70;8.50;;;;;;;5.80;80.29;100383.81;85831;1285;95106;-61
2022/09/25 00:28:52;;;;;;;10.00;7.60;;;;;;;5.73;80.29;100390.61;85850;1284;80524;-61
2022/09/25 00:31:02;;;;;;;12.20;9.20;;;;;;;5.70;80.34;100395.08;85875;1294;82212;-59
2022/09/25 00:33:14;;;;;;;11.70;8.20;;;;;;;5.67;80.36;100395.27;85782;1297;99692;-61
2022/09/25 00:35:26;;;;;;;11.70;8.10;;;;;;;5.62;80.56;100392.91;85857;1299;87528;-62
2022/09/25 00:37:52;;;;;;;11.40;7.80;;;;;;;5.57;80.38;100395.38;85916;1294;93720;-61
2022/09/25 00:40:10;;;;;;;11.80;8.60;;;;;;;5.54;80.55;100390.19;85841;1301;83257;-59
2022/09/25 00:42:26;;;;;;;12.70;8.00;;;;;;;5.51;80.52;100387.03;85859;1293;80695;-55
2022/09/25 00:44:59;;;;;;;8.10;7.10;;;;;;;5.47;80.62;100385.14;85826;1293;99978;-60
2022/09/25 00:47:11;;;;;;;9.00;7.70;;;;;;;5.44;80.79;100380.70;85829;1300;88943;-61
2022/09/25 00:49:26;;;;;;;10.40;8.30;;;;;;;5.41;80.71;100381.35;85838;1298;94038;-63
2022/09/25 00:51:42;;;;;;;12.60;8.20;;;;;;;5.36;80.74;100379.81;85845;1300;81935;-58
2022/09/25 00:53:52;;;;;;;12.90;8.20;;;;;;;5.34;80.70;100382.95;85841;1294;82172;-58
2022/09/25 00:56:04;;;;;;;10.70;8.20;;;;;;;5.31;80.74;100383.88;85822;1293;98690;-57
2022/09/25 00:58:19;;;;;;;12.80;8.20;;;;;;;5.30;80.73;100377.79;85840;1285;87889;-61
2022/09/25 01:00:39;;;;;;;10.40;7.70;;;;;;;5.28;80.81;100379.92;85825;1300;94358;-59
2022/09/25 01:02:55;;;;;;;10.40;8.20;;;;;;;5.27;80.65;100382.58;85861;1300;77852;-58
2022/09/25 01:05:10;;;;;;;11.40;8.00;;;;;;;5.22;80.91;100384.30;85867;1300;81820;-59
2022/09/25 01:07:22;;;;;;;12.80;8.90;;;;;;;5.19;80.72;100387.27;85839;1285;100286;-59
2022/09/25 01:09:53;;;;;;;12.20;8.00;;;;;;;5.15;81.01;100384.50;85864;1300;89056;-61
2022/09/25 01:12:21;;;;;;;9.90;8.20;;;;;;;5.07;80.82;100383.89;85831;1284;95181;-59
2022/09/25 01:14:38;;;;;;;12.40;8.10;;;;;;;5.01;80.86;100386.09;85838;1285;81662;-57
2022/09/25 01:17:01;;;;;;;11.50;8.10;;;;;;;4.96;81.01;100386.23;85859;1286;79659;-61
2022/09/25 01:19:42;;;;;;;10.90;8.20;;;;;;;4.93;80.89;100385.67;85878;1300;97704;-61
2022/09/25 01:22:05;;;;;;;12.30;7.80;;;;;;;4.92;80.97;100381.85;85853;1294;88922;-59
2022/09/25 01:24:44;;;;;;;11.00;8.30;;;;;;;4.91;80.86;100380.77;85790;1295;93817;-58
2022/09/25 01:27:26;;;;;;;11.10;8.00;;;;;;;4.87;80.85;100379.70;85789;1294;80929;-56
2022/09/25 01:29:42;;;;;;;12.70;8.30;;;;;;;4.83;81.39;100377.45;85840;1284;83063;-57
2022/09/25 01:32:02;;;;;;;10.50;7.40;;;;;;;4.81;81.20;100375.70;85835;1300;99877;-55
2022/09/25 01:34:19;;;;;;;10.10;8.10;;;;;;;4.79;81.24;100376.81;85834;1285;86697;-55
2022/09/25 01:36:35;;;;;;;10.30;7.60;;;;;;;4.79;81.15;100375.20;85854;1301;94046;-58
2022/09/25 01:38:50;;;;;;;11.60;7.80;;;;;;;4.79;81.23;100376.38;85812;1300;80787;-57
2022/09/25 01:41:09;;;;;;;11.30;7.70;;;;;;;4.79;81.25;100373.18;85962;1300;82550;-61
2022/09/25 01:43:26;;;;;;;11.50;8.60;;;;;;;4.81;81.25;100375.20;85997;1285;97915;-61
2022/09/25 01:45:43;;;;;;;10.80;8.20;;;;;;;4.78;81.24;100372.92;85974;1300;86220;-58
2022/09/25 01:47:57;;;;;;;10.20;7.50;;;;;;;4.77;81.27;100372.71;85811;1301;93212;-58
2022/09/25 01:50:07;;;;;;;;;;;;;;;4.73;81.26;100371.14;85868;1300;82434;-61
2022/09/25 01:52:24;;;;;;;11.70;8.10;;;;;;;4.71;81.30;100368.45;85842;1284;82243;-62
2022/09/25 01:54:38;;;;;;;10.30;7.60;;;;;;;4.71;81.36;100371.86;85885;1291;98782;-61
2022/09/25 01:56:58;;;;;;;12.10;8.40;;;;;;;4.69;81.40;100370.66;85853;1285;86210;-60
2022/09/25 01:59:13;;;;;;;10.90;8.70;;;;;;;4.66;81.48;100368.80;85825;1293;94906;-58
2022/09/25 02:01:27;;;;;;;10.40;7.80;;;;;;;4.60;81.47;100367.30;85818;1301;78313;-57
2022/09/25 02:03:38;;;;;;;;;;;;;;;4.55;81.43;100369.00;85837;1300;82059;-56
2022/09/25 02:05:55;;;;;;;13.20;7.80;;;;;;;4.50;81.33;100365.20;85894;1300;98917;-61
2022/09/25 02:08:09;;;;;;;10.30;8.60;;;;;;;4.46;81.45;100363.98;85515;1301;560386;-61
2022/09/25 02:10:27;;;;;;;11.50;7.80;;;;;;;4.40;81.43;100366.56;85900;1301;94997;-58
2022/09/25 02:12:42;;;;;;;11.40;9.20;;;;;;;4.36;81.54;100362.39;85739;1287;79078;-58
2022/09/25 02:14:58;;;;;;;12.00;8.50;;;;;;;4.29;81.72;100362.88;85664;1304;80951;-61
2022/09/25 02:20:30;;;;;;;10.20;8.30;;;;;;;4.26;81.86;100362.63;85845;1300;98420;-61
2022/09/25 02:22:18;;;;;;;11.60;8.30;;;;;;;4.24;81.85;100357.82;85715;1287;95935;-59
2022/09/25 02:24:37;;;;;;;11.90;9.00;;;;;;;4.27;81.71;100354.77;85706;1302;80170;-58
2022/09/25 02:26:48;;;;;;;11.10;8.10;;;;;;;4.26;81.90;100350.02;85753;1302;79931;-61
2022/09/25 02:28:58;;;;;;;11.00;8.00;;;;;;;4.26;81.86;100349.45;85818;1298;99666;-60
2022/09/25 02:31:11;;;;;;;13.50;8.60;;;;;;;4.28;81.75;100346.56;85756;1303;88910;-57
2022/09/25 02:33:21;;;;;;;13.10;8.80;;;;;;;4.29;81.91;100342.23;85736;1304;92696;-58
2022/09/25 02:35:31;;;;;;;12.20;8.00;;;;;;;4.30;81.90;100339.95;85721;1304;81607;-57
2022/09/25 02:37:39;;;;;;;10.10;7.60;;;;;;;4.30;82.00;100338.55;85755;1296;83220;-50
2022/09/25 02:39:52;;;;;;;11.80;8.70;;;;;;;4.30;82.05;100340.87;85704;1303;99874;-59
2022/09/25 02:42:19;;;;;;;14.10;8.80;;;;;;;4.30;82.10;100338.22;85742;1303;87853;-58
2022/09/25 02:44:43;;;;;;;12.60;8.90;;;;;;;4.31;81.96;100337.95;85743;1296;92986;-58
2022/09/25 02:47:03;;;;;;;13.40;9.50;;;;;;;4.31;81.96;100338.25;85870;1293;80523;-61
2022/09/25 02:49:22;;;;;;;12.30;8.40;;;;;;;4.33;81.94;100338.23;85888;1297;81746;-62
2022/09/25 02:51:45;;;;;;;12.80;8.70;;;;;;;4.32;81.93;100336.78;85740;1296;100232;-62
2022/09/25 02:54:04;;;;;;;12.70;8.90;;;;;;;4.29;82.08;100335.04;85759;1298;89082;-61
2022/09/25 02:56:20;;;;;;;15.30;9.10;;;;;;;4.24;82.24;100330.95;85755;1303;94929;-54
2022/09/25 02:58:35;;;;;;;14.00;8.90;;;;;;;4.21;82.16;100329.61;85729;1288;79173;-57
2022/09/25 03:00:50;;;;;;;14.50;8.90;;;;;;;4.19;82.08;100328.78;85689;1294;83701;-61
2022/09/25 03:03:02;;;;;;;12.80;8.80;;;;;;;4.15;82.12;100332.12;85751;1293;99158;-63
2022/09/25 03:05:16;;;;;;;14.80;10.10;;;;;;;4.12;82.19;100330.52;85763;1304;88770;-60
2022/09/25 03:07:25;;;;;;;14.60;9.90;;;;;;;4.08;82.19;100328.77;85733;1287;95851;-56
2022/09/25 03:09:40;;;;;;;11.20;8.90;;;;;;;4.05;82.31;100325.63;85723;1300;81059;-61
2022/09/25 03:11:52;;;;;;;13.80;9.30;;;;;;;4.02;82.37;100328.23;85815;1299;80776;-63
2022/09/25 03:14:02;;;;;;;14.30;9.50;;;;;;;4.03;82.29;100327.80;85835;1293;96670;-63
2022/09/25 03:16:17;;;;;;;14.00;9.80;;;;;;;4.05;82.37;100330.98;85841;1300;87999;-59
2022/09/25 03:18:27;;;;;;;12.90;9.30;;;;;;;4.05;82.60;100329.17;85823;1301;93627;-59
2022/09/25 03:20:41;;;;;;;14.60;9.20;;;;;;;4.04;82.60;100328.56;85848;1300;80168;-61
2022/09/25 03:22:50;;;;;;;12.90;9.90;;;;;;;4.03;82.47;100325.67;85887;1300;81661;-63
2022/09/25 03:24:59;;;;;;;12.50;8.70;;;;;;;4.03;82.51;100324.97;85871;1291;100089;-60
2022/09/25 03:27:08;;;;;;;13.10;9.40;;;;;;;4.02;82.46;100322.35;85814;1300;87691;-60
2022/09/25 03:29:19;;;;;;;14.50;9.90;;;;;;;4.03;82.55;100321.27;85801;1294;93190;-60
2022/09/25 03:31:29;;;;;;;14.10;9.60;;;;;;;4.02;82.40;100322.58;85809;1291;82751;-62
2022/09/25 03:33:40;;;;;;;15.90;10.70;;;;;;;4.02;82.48;100319.36;85829;1300;81145;-60
2022/09/25 03:35:59;;;;;;;11.90;9.10;;;;;;;3.98;82.49;100321.00;85814;1284;99856;-58
2022/09/25 03:38:09;;;;;;;14.20;9.20;;;;;;;3.96;82.72;100321.90;85860;1284;88868;-58
2022/09/25 03:40:20;;;;;;;12.00;9.10;;;;;;;3.98;82.71;100331.89;85859;1302;94143;-53
2022/09/25 03:42:28;;;;;;;12.80;9.90;;;;;;;3.96;82.61;100331.22;85829;1295;79453;-62
2022/09/25 03:44:37;;;;;;;16.10;11.40;;;;;;;3.97;82.66;100333.06;85801;1299;84511;-62
2022/09/25 03:46:47;;;;;;;17.10;11.60;;;;;;;3.94;82.74;100329.09;85846;1291;99261;-59
2022/09/25 03:49:00;;;;;;;15.50;10.50;;;;;;;3.90;82.65;100327.81;85830;1285;89005;-60
2022/09/25 03:51:11;;;;;;;18.90;12.10;;;;;;;3.87;82.66;100331.73;85837;1300;94257;-61
2022/09/25 03:53:19;;;;;;;14.80;10.70;;;;;;;3.83;82.64;100328.59;85839;1295;80851;-60
2022/09/25 03:55:30;;;;;;;16.30;11.00;;;;;;;3.77;82.76;100317.77;85877;1295;82164;-58
2022/09/25 03:57:40;;;;;;;18.40;10.60;;;;;;;3.75;82.66;100319.20;85782;1300;100219;-59
2022/09/25 03:59:49;;;;;;;17.80;10.30;;;;;;;3.74;82.88;100320.36;85843;1302;88597;-59
2022/09/25 04:02:01;;;;;;;14.10;9.80;;;;;;;3.75;83.07;100320.92;85834;1295;95304;-57
2022/09/25 04:04:10;;;;;;;13.80;11.20;;;;;;;3.81;82.97;100324.48;85799;1295;81772;-55
2022/09/25 04:06:23;;;;;;;14.00;10.40;;;;;;;3.85;83.04;100328.55;85854;1292;82716;-55
2022/09/25 04:08:34;;;;;;;14.00;10.60;;;;;;;3.89;83.23;100332.23;85866;1300;99927;-59
2022/09/25 04:10:43;;;;;;;16.70;12.20;;;;;;;3.92;83.16;100330.91;85832;1294;85985;-58
2022/09/25 04:12:56;;;;;;;14.80;10.90;;;;;;;3.95;83.29;100329.83;85841;1300;95029;-57
2022/09/25 04:15:05;;;;;;;14.80;10.70;;;;;;;3.95;83.20;100331.13;85831;1301;78256;-58
2022/09/25 04:17:15;;;;;;;13.30;10.30;;;;;;;3.94;83.29;100329.38;85829;1300;82138;-59
2022/09/25 04:19:24;;;;;;;16.20;11.20;;;;;;;3.95;83.32;100330.89;85836;1300;100065;-57
2022/09/25 04:21:34;;;;;;;14.00;11.00;;;;;;;3.94;83.21;100330.84;85970;1300;87425;-60
2022/09/25 04:24:46;;;;;;;14.50;10.60;;;;;;;3.94;83.27;100328.91;85999;1295;93546;-61
2022/09/25 04:26:12;;;;;;;16.00;10.70;;;;;;;3.95;83.31;100326.61;85865;1296;80966;-51
2022/09/25 04:28:22;;;;;;;13.10;10.60;;;;;;;3.96;83.11;100325.95;85851;1301;82181;-58
2022/09/25 04:30:31;;;;;;;17.00;11.50;;;;;;;3.96;83.37;100324.61;85849;1302;100047;-58
2022/09/25 04:35:08;;;;;;;14.90;10.90;;;;;;;4.00;83.42;100322.92;85769;1294;94231;-58
2022/09/25 04:37:17;;;;;;;16.10;11.20;;;;;;;4.04;83.27;100321.46;85829;1299;82297;-58
2022/09/25 04:39:26;;;;;;;13.60;11.10;;;;;;;4.08;83.44;100322.52;85836;1300;83449;-59
2022/09/25 04:41:35;;;;;;;17.00;11.20;;;;;;;4.13;83.36;100322.22;85825;1300;100005;-61
2022/09/25 04:43:43;;;;;;;15.80;11.50;;;;;;;4.19;83.36;100317.16;85853;1284;88551;-60
2022/09/25 04:45:53;;;;;;;15.80;11.50;;;;;;;4.26;83.39;100315.29;85817;1300;94707;-61
2022/09/25 04:48:06;;;;;;;18.70;11.50;;;;;;;4.29;83.23;100318.29;85846;1299;80911;-63
2022/09/25 04:50:18;;;;;;;14.90;12.40;;;;;;;4.33;83.30;100317.71;85888;1296;83338;-61
2022/09/25 04:52:32;;;;;;;14.50;10.70;;;;;;;4.37;83.30;100315.75;85837;1286;99133;-60
2022/09/25 04:54:41;;;;;;;16.00;11.20;;;;;;;4.40;83.35;100318.31;85827;1292;88406;-60
2022/09/25 04:56:50;;;;;;;15.60;11.70;;;;;;;4.42;83.38;100318.40;85863;1285;93820;-63
2022/09/25 04:58:58;;;;;;;15.30;12.40;;;;;;;4.48;83.45;100317.83;85831;1301;80573;-62
2022/09/25 05:01:09;;;;;;;14.00;11.50;;;;;;;4.54;83.50;100311.70;85836;1302;80588;-56
2022/09/25 05:03:19;;;;;;;17.00;12.30;;;;;;;4.62;83.51;100309.14;85820;1286;100047;-54
2022/09/25 05:05:29;;;;;;;15.70;11.30;;;;;;;4.70;83.41;100310.17;85835;1300;87558;-59
2022/09/25 05:07:38;;;;;;;13.70;11.40;;;;;;;4.78;83.45;100306.77;85816;1300;95778;-59
2022/09/25 05:09:47;;;;;;;14.70;12.20;;;;;;;4.89;83.48;100303.84;85860;1291;81738;-59
2022/09/25 05:11:56;;;;;;;15.30;11.30;;;;;;;5.01;83.60;100302.09;85845;1300;79803;-62
2022/09/25 05:14:04;;;;;;;14.80;12.60;;;;;;;5.14;83.66;100300.69;85819;1300;99369;-62
2022/09/25 05:16:13;;;;;;;15.40;11.70;;;;;;;5.26;83.79;100299.49;85799;1286;89029;-62
2022/09/25 05:18:24;;;;;;;17.00;12.20;;;;;;;5.40;83.66;100301.30;85821;1300;91682;-60
2022/09/25 05:20:33;;;;;;;15.30;12.10;;;;;;;5.56;83.94;100302.61;85817;1300;81771;-57
2022/09/25 05:22:43;;;;;;;15.90;11.60;;;;;;;5.71;83.81;100304.43;85816;1294;82028;-59
2022/09/25 05:24:52;;;;;;;16.70;12.20;;;;;;;5.85;83.82;100307.56;85857;1300;100493;-59
2022/09/25 05:27:01;;;;;;;17.20;11.90;;;;;;;5.97;83.71;100307.59;85824;1298;87189;-55
2022/09/25 05:29:11;;;;;;;15.30;11.70;;;;;;;6.10;83.57;100313.13;85780;1300;94914;-58
2022/09/25 05:31:23;;;;;;;14.10;11.50;;;;;;;6.22;83.56;100313.40;85857;1296;82505;-62
2022/09/25 05:33:34;;;;;;;16.60;12.00;;;;;;;6.33;83.58;100312.46;85859;1285;81777;-61
2022/09/25 05:35:44;;;;;;;14.60;12.00;;;;;;;6.46;83.67;100316.88;85847;1293;98640;-60
2022/09/25 05:37:53;;;;;;;16.90;11.90;;;;;;;6.67;83.61;100318.95;85823;1286;88029;-59
2022/09/25 05:40:02;;;;;;;19.90;14.30;;;;;;;7.67;84.03;100318.66;85850;1292;95231;-59
2022/09/25 05:42:14;;;;;;;18.90;14.00;;;;;;;9.34;84.07;100316.04;85846;1300;82325;-59
2022/09/25 05:44:24;;;;;;;21.60;14.00;;;;;;;10.59;82.96;100315.40;85848;1295;79817;-57
2022/09/25 05:46:33;;;;;;;15.00;12.60;;;;;;;11.43;81.77;100311.77;85993;1286;99530;-60
2022/09/25 05:48:43;;;;;;;16.00;12.90;;;;;;;11.92;80.94;100312.41;85988;1294;86571;-61
2022/09/25 05:50:56;;;;;;;15.20;11.60;;;;;;;12.28;79.33;100314.42;85939;1283;95512;-61
2022/09/25 05:53:08;;;;;;;14.20;12.30;;;;;;;12.70;78.17;100312.21;85931;1300;79101;-61
2022/09/25 05:55:18;;;;;;;16.50;14.10;;;;;;;13.28;77.16;100311.30;85862;1294;82338;-57
2022/09/25 05:57:30;;;;;;;14.20;12.20;;;;;;;13.63;76.63;100312.23;85832;1300;97736;-59
2022/09/25 05:59:39;;;;;;;16.60;13.50;;;;;;;13.45;76.02;100315.23;85885;1300;88620;-59
2022/09/25 06:01:48;;;;;;;20.60;15.30;;;;;;;13.24;75.81;100318.41;85862;1293;92434;-57
2022/09/25 06:03:57;;;;;;;23.10;17.70;;;;;;;12.81;75.66;100319.95;85821;1300;78940;-58
2022/09/25 06:06:08;;;;;;;24.00;19.30;;;;;;;12.30;75.52;100323.84;85836;1291;82717;-60
2022/09/25 06:08:17;;;;;;;26.70;19.30;;;;;;;11.84;75.52;100326.48;85828;1301;97605;-60
2022/09/25 06:10:26;;;;;;;27.20;22.50;;;;;;;11.52;75.75;100324.16;85839;1300;88534;-59
2022/09/25 06:12:35;;;;;;;26.40;21.10;;;;;;;11.30;76.08;100321.95;85821;1300;95485;-57
2022/09/25 06:14:44;;;;;;;28.40;22.20;;;;;;;11.20;76.23;100321.48;85851;1300;81074;-59
2022/09/25 06:16:56;;;;;;;30.00;23.60;;;;;;;11.22;76.11;100321.10;85847;1300;81741;-58
2022/09/25 06:19:13;;;;;;;24.10;20.20;;;;;;;11.25;76.02;100317.91;85849;1300;98289;-58
2022/09/25 06:21:24;;;;;;;24.50;20.20;;;;;;;11.38;76.03;100318.85;85856;1300;88235;-60
2022/09/25 06:23:50;;;;;;;24.00;19.60;;;;;;;11.45;76.08;100317.48;85784;1299;93970;-61
2022/09/25 06:26:05;;;;;;;22.00;18.50;;;;;;;11.59;76.02;100310.27;85842;1300;81319;-59
2022/09/25 06:28:15;;;;;;;23.60;18.60;;;;;;;11.76;75.94;100317.61;85851;1294;83133;-60
2022/09/25 06:30:32;;;;;;;21.10;17.60;;;;;;;11.90;75.96;100318.89;85825;1300;98163;-60
2022/09/25 06:32:46;;;;;;;19.50;17.00;;;;;;;12.07;75.77;100316.45;85836;1295;88617;-57
2022/09/25 06:34:59;;;;;;;20.80;18.20;;;;;;;12.24;75.15;100315.77;85832;1285;94851;-59
2022/09/25 06:37:10;;;;;;;19.80;16.60;;;;;;;12.46;74.76;100318.52;85864;1300;79582;-59
2022/09/25 06:39:20;;;;;;;20.40;17.00;;;;;;;12.67;74.41;100317.25;85877;1288;82510;-56
2022/09/25 06:41:31;;;;;;;18.30;16.30;;;;;;;12.78;74.26;100317.91;85845;1300;99915;-63
2022/09/25 06:43:48;;;;;;;20.50;17.40;;;;;;;12.90;74.07;100320.05;85884;1293;89182;-63
2022/09/25 06:46:02;;;;;;;18.70;16.50;;;;;;;13.10;73.42;100319.52;85830;1293;94613;-59
2022/09/25 06:48:14;;;;;;;18.90;16.80;;;;;;;13.29;73.16;100319.54;85818;1295;80111;-59
2022/09/25 06:50:24;;;;;;;18.90;16.80;;;;;;;13.47;72.97;100315.48;85863;1300;83790;-58
2022/09/25 06:52:33;;;;;;;19.50;17.10;;;;;;;13.60;72.61;100307.61;85850;1301;99624;-59
2022/09/25 06:54:42;;;;;;;20.90;16.30;;;;;;;13.69;71.85;100307.59;85835;1300;88829;-59
2022/09/25 06:56:53;;;;;;;20.70;17.10;;;;;;;13.79;71.36;100305.65;85832;1300;94023;-62
2022/09/25 06:59:01;;;;;;;17.60;15.50;;;;;;;13.87;71.19;100303.30;85826;1300;81092;-51
2022/09/25 07:01:12;;;;;;;17.90;16.00;;;;;;;13.88;71.05;100304.25;85854;1295;80704;-61
2022/09/25 07:05:49;;;;;;;18.50;16.10;;;;;;;13.79;70.37;100303.73;85842;1295;88947;-59
2022/09/25 07:07:59;;;;;;;19.10;16.30;;;;;;;13.80;70.04;100300.98;85828;1293;93685;-58
2022/09/25 07:10:10;;;;;;;19.60;16.80;;;;;;;13.81;69.95;100297.02;85877;1301;80185;-59
2022/09/25 07:12:20;;;;;;;19.00;16.10;;;;;;;13.84;69.95;100296.05;85882;1295;82487;-55
2022/09/25 07:14:32;;;;;;;17.70;14.90;;;;;;;13.91;69.94;100295.46;85835;1278;100160;-59
2022/09/25 07:16:41;;;;;;;21.10;17.90;;;;;;;13.92;69.46;100295.71;85839;1300;89063;-59
2022/09/25 07:18:51;;;;;;;17.30;15.10;;;;;;;13.90;69.23;100292.45;85846;1295;95760;-62
2022/09/25 07:21:05;;;;;;;18.70;15.00;;;;;;;13.90;68.89;100289.46;85831;1294;78294;-55
2022/09/25 07:23:17;;;;;;;20.00;15.10;;;;;;;13.96;68.92;100291.85;85863;1295;83230;-59
2022/09/25 07:25:34;;;;;;;16.90;14.50;;;;;;;14.08;69.25;100293.79;85885;1298;99335;-61
2022/09/25 07:31:13;;;;;;;17.50;13.80;;;;;;;16.00;68.99;100292.14;85882;1294;94717;-59
2022/09/25 07:33:27;;;;;;;18.40;14.60;;;;;;;16.48;67.50;100294.15;85862;1301;79628;-60
2022/09/25 07:35:39;;;;;;;18.30;15.00;;;;;;;16.57;66.95;100294.99;85867;1295;81570;-62
2022/09/25 07:37:49;;;;;;;16.90;13.50;;;;;;;16.97;66.58;100297.80;85852;1301;100133;-59
2022/09/25 07:39:59;;;;;;;16.60;14.60;;;;;;;17.40;66.01;100297.80;85855;1294;87843;-59
2022/09/25 07:42:08;;;;;;;17.70;14.20;;;;;;;18.11;64.88;100289.52;85875;1293;94685;-57
2022/09/25 07:44:17;;;;;;;15.50;13.90;;;;;;;18.76;63.87;100290.20;85854;1294;79152;-60
2022/09/25 07:46:42;;;;;;;14.50;13.00;;;;;;;19.74;62.82;100284.80;85832;1294;82624;-60
2022/09/25 07:48:53;;;;;;;14.80;13.20;;;;;;;20.73;62.32;100285.54;85815;1284;98827;-62
2022/09/25 07:51:08;;;;;;;14.40;12.40;;;;;;;21.30;61.35;100287.94;85854;1293;88231;-61
2022/09/25 07:53:20;;;;;;;13.50;11.10;;;;;;;22.28;60.28;100277.58;85815;1295;93477;-61
2022/09/25 07:55:38;;;;;;;13.60;12.10;;;;;;;23.24;59.31;100278.27;85848;1294;80185;-61
2022/09/25 07:57:47;;;;;;;12.90;11.60;;;;;;;24.11;57.42;100272.83;85864;1295;80335;-61
2022/09/25 07:59:59;;;;;;;11.80;10.30;;;;;;;24.73;55.85;100271.23;85807;1300;100307;-61
2022/09/25 08:02:09;;;;;;;11.10;9.80;;;;;;;25.18;54.58;100274.14;85841;1300;89269;-60
2022/09/25 08:04:23;;;;;;;11.80;10.60;;;;;;;25.52;53.13;100273.38;85836;1298;93547;-61
2022/09/25 08:06:35;;;;;;;11.20;10.10;;;;;;;26.01;52.53;100274.22;85810;1285;79703;-62
2022/09/25 08:08:49;;;;;;;10.70;9.30;;;;;;;26.25;51.47;100270.86;85876;1300;82759;-66
2022/09/25 08:11:10;;;;;;;11.30;10.20;;;;;;;26.59;49.50;100272.18;85855;1300;98708;-65
2022/09/25 08:13:20;;;;;;;10.30;9.20;;;;;;;26.69;49.39;100261.02;85836;1293;87127;-67
2022/09/25 08:15:32;;;;;;;10.50;9.60;;;;;;;26.67;48.95;100262.38;85813;1300;94761;-67
2022/09/25 08:17:42;;;;;;;10.40;9.40;;;;;;;26.84;47.93;100265.31;85843;1293;78435;-64
2022/09/25 08:19:53;;;;;;;9.70;8.80;;;;;;;27.16;46.21;100264.95;85822;1293;83177;-63
2022/09/25 08:22:05;;;;;;;9.50;8.60;;;;;;;27.24;45.74;100262.42;85838;1293;99384;-65
2022/09/25 08:24:16;;;;;;;9.70;8.80;;;;;;;26.74;45.09;100263.11;85837;1293;89480;-66
2022/09/25 08:26:29;;;;;;;8.40;7.70;;;;;;;26.31;43.98;100262.85;85849;1298;95423;-65
2022/09/25 08:28:38;;;;;;;8.60;7.80;;;;;;;25.91;42.90;100264.46;85818;1301;80052;-64
2022/09/25 08:30:47;;;;;;;9.10;8.30;;;;;;;25.69;43.95;100265.27;85849;1301;82778;-65
2022/09/25 08:32:59;;;;;;;8.80;8.00;;;;;;;25.81;43.61;100264.52;85814;1293;99555;-63
2022/09/25 08:35:11;;;;;;;8.90;8.00;;;;;;;25.98;43.30;100269.83;85832;1300;85997;-65
2022/09/25 08:37:20;;;;;;;8.10;7.40;;;;;;;26.14;42.53;100259.56;85838;1300;95174;-66
2022/09/25 08:39:31;;;;;;;7.80;7.00;;;;;;;26.11;42.39;100257.62;85835;1295;80926;-66
2022/09/25 08:41:48;;;;;;;7.40;6.80;;;;;;;26.33;42.72;100252.98;85843;1285;83018;-65
2022/09/25 08:44:10;;;;;;;9.50;7.90;;;;;;;26.59;42.15;100253.13;85839;1298;99689;-66
2022/09/25 08:49:05;;;;;;;7.90;7.10;;;;;;;26.10;40.65;100252.48;85809;1300;94261;-65
2022/09/25 08:51:15;;;;;;;8.40;7.60;;;;;;;25.53;40.64;100250.52;85848;1295;80929;-67
2022/09/25 08:53:27;;;;;;;7.30;6.60;;;;;;;25.08;40.98;100252.65;85831;1301;83308;-66
2022/09/25 08:58:21;;;;;;;7.70;7.00;;;;;;;24.79;41.41;100251.36;85875;1300;89804;-64
2022/09/25 09:00:32;;;;;;;9.60;8.10;;;;;;;24.87;41.75;100250.16;85710;1293;95544;-67
2022/09/25 09:02:47;;;;;;;8.30;7.50;;;;;;;25.07;41.01;100244.28;85867;1299;80981;-64
2022/09/25 09:05:00;;;;;;;9.80;7.10;;;;;;;25.14;40.00;100242.01;85842;1301;83237;-63
2022/09/25 09:07:15;;;;;;;7.80;7.10;;;;;;;25.10;40.41;100241.71;85839;1300;99357;-63
2022/09/25 09:09:31;;;;;;;8.50;7.80;;;;;;;25.18;39.91;100237.55;85866;1300;89007;-63
2022/09/25 09:11:45;;;;;;;7.60;6.90;;;;;;;25.22;40.03;100232.20;85799;1285;95399;-63
2022/09/25 09:14:01;;;;;;;8.50;7.70;;;;;;;25.02;40.36;100234.08;85829;1301;79829;-59
2022/09/25 09:16:21;;;;;;;8.40;7.60;;;;;;;24.83;40.23;100233.50;85855;1294;79943;-56
2022/09/25 09:18:32;;;;;;;8.90;8.00;;;;;;;24.29;40.29;100234.44;85847;1294;99032;-60
2022/09/25 09:20:50;;;;;;;7.70;7.00;;;;;;;23.74;40.76;100233.02;85851;1294;88228;-61
2022/09/25 09:22:59;;;;;;;8.30;7.50;;;;;;;23.49;41.41;100227.00;85821;1288;93656;-59
2022/09/25 09:25:19;;;;;;;9.30;8.30;;;;;;;23.19;41.08;100228.60;85818;1294;80186;-63
2022/09/25 09:27:47;;;;;;;8.00;7.30;;;;;;;22.88;41.59;100224.80;85854;1300;83175;-62
2022/09/25 09:30:17;;;;;;;8.20;7.40;;;;;;;23.02;42.25;100221.55;85839;1281;100648;-63
2022/09/25 09:32:41;;;;;;;11.60;6.40;;;;;;;23.40;41.97;100224.36;85869;1293;87562;-64
2022/09/25 09:35:08;;;;;;;7.20;6.50;;;;;;;23.45;41.62;100221.11;85875;1295;94272;-63
2022/09/25 09:37:37;;;;;;;7.40;6.70;;;;;;;23.26;41.97;100216.24;85827;1300;80473;-62
2022/09/25 09:40:01;;;;;;;6.80;5.80;;;;;;;23.14;41.90;100212.02;85686;1298;82437;-60
2022/09/25 09:42:35;;;;;;;7.10;6.10;;;;;;;22.82;41.68;100210.46;85890;1299;98331;-63
2022/09/25 09:45:09;;;;;;;7.40;6.70;;;;;;;22.42;42.71;100205.30;85780;1288;87578;-61
2022/09/25 09:47:46;;;;;;;7.00;6.30;;;;;;;21.99;41.91;100203.48;85815;1285;95246;-61
2022/09/25 09:50:04;;;;;;;7.40;6.60;;;;;;;21.59;42.49;100197.82;85716;1296;82864;-62
2022/09/25 09:52:17;;;;;;;9.30;6.40;;;;;;;21.36;43.28;100196.85;85850;1294;83403;-61
2022/09/25 09:54:41;;;;;;;7.80;7.00;;;;;;;21.10;43.85;100195.45;85815;1285;98869;-63
2022/09/25 09:56:55;;;;;;;10.10;7.50;;;;;;;20.92;43.68;100192.48;85785;1295;88909;-60
2022/09/25 09:59:06;;;;;;;7.40;6.60;;;;;;;20.59;44.24;100186.03;85851;1297;93314;-61
2022/09/25 10:01:18;;;;;;;7.40;6.70;;;;;;;20.49;44.17;100183.74;85853;1295;79782;-62
2022/09/25 10:03:52;;;;;;;7.80;6.90;;;;;;;20.35;44.24;100178.55;85815;1295;82834;-61
2022/09/25 10:06:15;;;;;;;8.30;6.50;;;;;;;20.20;44.85;100173.36;85782;1300;97902;-61
2022/09/25 10:08:30;;;;;;;7.30;6.00;;;;;;;20.04;45.12;100171.30;82901;1296;3919419;-60
2022/09/25 10:10:42;;;;;;;7.10;6.20;;;;;;;20.02;45.05;100168.92;85815;1294;94629;-61
2022/09/25 10:13:00;;;;;;;7.70;5.60;;;;;;;20.01;45.53;100167.70;85846;1293;79125;-63
2022/09/25 10:15:31;;;;;;;7.30;6.50;;;;;;;19.94;45.64;100166.43;85871;1293;82065;-63
2022/09/25 10:17:50;;;;;;;;;;;;;;;19.94;46.00;100164.84;85836;1293;99099;-62
2022/09/25 10:20:26;;;;;;;6.90;6.20;;;;;;;19.95;46.39;100163.08;85740;1296;86010;-63
2022/09/25 10:22:44;;;;;;;7.40;5.90;;;;;;;19.83;46.05;100161.02;85875;1295;94005;-60
2022/09/25 10:25:04;;;;;;;6.20;5.60;;;;;;;19.87;46.15;100158.93;85899;1300;79466;-63
2022/09/25 10:27:34;;;;;;;6.00;5.00;;;;;;;19.88;45.81;100163.27;85830;1291;83964;-62
2022/09/25 10:29:44;;;;;;;6.30;5.70;;;;;;;19.79;45.59;100160.81;85888;1295;101030;-62
2022/09/25 10:32:04;;;;;;;6.40;5.70;;;;;;;19.71;45.80;100161.74;85848;1294;88231;-63
2022/09/25 10:34:28;;;;;;;6.70;6.00;;;;;;;19.65;44.88;100164.90;85880;1293;92716;-63
2022/09/25 10:36:45;;;;;;;7.50;5.10;;;;;;;19.37;45.18;100157.42;85733;1298;79822;-59